首页
METAR-TAF:

METAR-TAF

机场 :

阿盖尔国际机场

Saint Vincent, 圣文森特和格林纳丁斯

纬度: 13-09-23N, 经度: 061-09-01W, 海拔: 41米

当前天气观测

该预报发布于8小时和5分钟前的01:00 UTC
风速7节,风向东北
温度 28°C
湿度 79%
气压 1013 hPa
能見度: 6000
散云层高于1800英尺

METAR: TVSA 220100Z 05007KT 6000 SCT018 28/24 Q1013 NOSIG

时间: 05:05 (09:05 UTC)

预报

该预报发布于3小时和5分钟前的06:00 UTC
预报有效从22日的 06点(UTC)到 23日的 06点(UTC)
风速7节,风向东北
能见度10公里或以上
散云层高于2200英尺

TAF: TVSA 220600Z 2206/2306 05007KT 9999 SCT022

超过4000个机场的气象观测和天气预报(METAR&TAF报告)。

可查询的气象台以黄色和红色小点在地图上表示。

将鼠标移到小点上方,可查看气象台名称。

然后点击查看天气观测和预报。

如需切换地图:点击带黑十字的绿色按钮放大地图;点击带横线的绿色按钮缩小地图;或者点击绿色箭头查看邻近地区的地图。


METAR-TAF: